Time;durP1;ratioP1;P1;durP2;ratioP2;P2;SDS_P1;SDS_P2;PMS_P1;PMS_P2;Temp;Humidity;BMP_temperature;BMP_pressure;BME280_temperature;BME280_humidity;BME280_pressure;Samples;Min_cycle;Max_cycle;Signal;HPM_P1;HPM_P2
2021/01/21 00:00:48;;;;;;;5.80;3.70;;;-0.30;99.90;;;;;;2073237;28;20181;-61
2021/01/21 00:01:49;;;;;;;5.63;3.27;;;-0.20;99.90;;;;;;2072790;28;20638;-58
2021/01/21 00:02:49;;;;;;;4.93;2.80;;;-0.20;99.90;;;;;;2073141;28;20208;-58
2021/01/21 00:03:50;;;;;;;7.57;4.10;;;-0.20;99.90;;;;;;2073060;28;20182;-58
2021/01/21 00:04:51;;;;;;;6.27;3.80;;;-0.10;99.90;;;;;;2073004;28;20203;-59
2021/01/21 00:05:51;;;;;;;6.23;4.07;;;-0.20;99.90;;;;;;2073022;28;20233;-60
2021/01/21 00:06:52;;;;;;;7.53;3.87;;;-0.10;99.90;;;;;;2072851;28;20204;-60
2021/01/21 00:07:53;;;;;;;6.40;3.63;;;-0.10;99.90;;;;;;2073030;28;20193;-58
2021/01/21 00:08:54;;;;;;;6.27;3.33;;;-0.10;99.90;;;;;;2073202;28;20236;-56
2021/01/21 00:09:54;;;;;;;3.77;2.70;;;0.00;99.90;;;;;;2073103;28;20435;-58
2021/01/21 00:10:55;;;;;;;4.63;2.10;;;0.10;99.90;;;;;;2072780;28;20575;-59
2021/01/21 00:11:57;;;;;;;2.42;1.10;;;0.20;99.90;;;;;;2072849;28;20218;-58
2021/01/21 00:12:58;;;;;;;1.83;1.10;;;0.70;99.90;;;;;;2073174;28;20548;-58
2021/01/21 00:13:59;;;;;;;2.50;1.03;;;1.30;99.90;;;;;;2073102;28;20205;-59
2021/01/21 00:14:59;;;;;;;1.20;1.00;;;1.60;99.90;;;;;;2073156;28;20659;-58
2021/01/21 00:16:01;;;;;;;1.17;0.90;;;1.90;99.90;;;;;;2072935;28;20284;-59
2021/01/21 00:17:01;;;;;;;3.08;1.25;;;2.40;99.90;;;;;;2073068;28;20188;-60
2021/01/21 00:18:02;;;;;;;2.03;1.07;;;2.60;99.90;;;;;;2072795;28;20769;-63
2021/01/21 00:19:03;;;;;;;1.67;1.00;;;2.90;99.90;;;;;;2072646;28;20545;-59
2021/01/21 00:20:05;;;;;;;1.57;1.00;;;3.30;99.90;;;;;;2073091;28;20213;-58
2021/01/21 00:21:06;;;;;;;2.22;1.02;;;3.50;99.90;;;;;;2072807;28;20187;-57
2021/01/21 00:22:07;;;;;;;1.43;0.90;;;3.80;97.50;;;;;;2072868;28;20634;-58
2021/01/21 00:23:07;;;;;;;3.03;0.90;;;4.00;98.10;;;;;;2072948;28;20200;-58
2021/01/21 00:24:08;;;;;;;1.27;1.00;;;4.10;98.10;;;;;;2073001;28;20614;-60
2021/01/21 00:25:09;;;;;;;1.50;0.87;;;4.20;97.40;;;;;;2073014;28;20201;-58
2021/01/21 00:26:10;;;;;;;0.98;0.70;;;4.40;94.10;;;;;;2072598;28;20187;-59
2021/01/21 00:27:11;;;;;;;2.13;0.90;;;4.50;94.00;;;;;;2073139;28;20168;-58
2021/01/21 00:28:11;;;;;;;1.00;0.80;;;4.80;88.80;;;;;;2072950;28;20185;-59
2021/01/21 00:29:12;;;;;;;1.00;0.70;;;4.90;84.70;;;;;;2072979;28;20188;-59
2021/01/21 00:30:14;;;;;;;0.93;0.80;;;5.00;88.70;;;;;;2072927;28;20245;-58
2021/01/21 00:31:14;;;;;;;2.00;0.90;;;5.00;85.10;;;;;;2072802;28;20184;-58
2021/01/21 00:32:15;;;;;;;1.60;0.80;;;5.00;89.20;;;;;;2072790;28;20239;-60
2021/01/21 00:33:16;;;;;;;2.03;1.03;;;5.00;90.30;;;;;;2072965;28;20205;-60
2021/01/21 00:34:17;;;;;;;1.90;1.10;;;5.00;88.80;;;;;;2072615;28;20180;-60
2021/01/21 00:35:18;;;;;;;3.33;1.10;;;5.10;84.50;;;;;;2072946;28;20642;-58
2021/01/21 00:36:19;;;;;;;3.88;1.02;;;5.10;89.20;;;;;;2072807;28;20204;-57
2021/01/21 00:37:19;;;;;;;1.43;0.90;;;5.00;87.60;;;;;;2072760;28;20256;-60
2021/01/21 00:38:20;;;;;;;1.50;1.00;;;4.90;88.50;;;;;;2072947;28;20572;-59
2021/01/21 00:39:21;;;;;;;0.93;0.80;;;4.90;90.60;;;;;;2072655;28;20177;-59
2021/01/21 00:40:21;;;;;;;2.83;0.93;;;4.90;88.50;;;;;;2072762;28;20176;-58
2021/01/21 00:41:22;;;;;;;1.37;1.00;;;4.90;89.60;;;;;;2072475;28;20295;-60
2021/01/21 00:42:23;;;;;;;1.80;0.90;;;4.90;89.40;;;;;;2072888;28;20236;-60
2021/01/21 00:43:23;;;;;;;0.90;0.77;;;4.90;90.10;;;;;;2072660;28;20174;-60
2021/01/21 00:44:24;;;;;;;1.20;0.80;;;5.00;87.00;;;;;;2072068;28;20660;-59
2021/01/21 00:45:25;;;;;;;1.77;0.90;;;5.00;90.00;;;;;;2072799;28;20174;-55
2021/01/21 00:46:25;;;;;;;1.33;0.93;;;5.00;90.40;;;;;;2072809;28;20246;-60
2021/01/21 00:47:26;;;;;;;1.23;0.90;;;4.90;90.10;;;;;;2072838;28;20201;-59
2021/01/21 00:48:27;;;;;;;1.40;1.00;;;4.90;91.50;;;;;;2072929;28;20184;-55
2021/01/21 00:49:28;;;;;;;1.00;0.90;;;4.90;90.70;;;;;;2072757;28;20521;-56
2021/01/21 00:50:29;;;;;;;1.30;1.00;;;4.80;91.50;;;;;;2072804;28;20192;-59
2021/01/21 00:51:29;;;;;;;1.50;0.90;;;4.80;92.30;;;;;;2072584;28;20188;-59
2021/01/21 00:52:30;;;;;;;0.97;0.80;;;4.70;92.00;;;;;;2072898;28;20188;-57
2021/01/21 00:53:31;;;;;;;1.10;0.90;;;4.70;92.40;;;;;;2072838;28;20216;-59
2021/01/21 00:54:31;;;;;;;1.17;0.73;;;4.80;91.10;;;;;;2072834;28;20219;-60
2021/01/21 00:55:32;;;;;;;1.77;0.90;;;4.80;91.00;;;;;;2072670;28;20213;-58
2021/01/21 00:56:33;;;;;;;1.17;0.80;;;4.80;91.20;;;;;;2072753;28;20676;-59
2021/01/21 00:57:33;;;;;;;2.17;0.90;;;4.80;90.90;;;;;;2072780;28;20184;-59
2021/01/21 00:58:34;;;;;;;1.40;1.00;;;4.80;90.80;;;;;;2072820;28;20651;-57
2021/01/21 00:59:35;;;;;;;1.17;0.80;;;4.80;91.80;;;;;;2072805;28;20188;-57
2021/01/21 01:00:36;;;;;;;1.77;0.87;;;4.90;86.30;;;;;;2072865;28;20181;-59
2021/01/21 01:01:37;;;;;;;0.93;0.80;;;4.90;85.70;;;;;;2072386;28;20288;-58
2021/01/21 01:02:38;;;;;;;1.33;0.90;;;5.00;90.20;;;;;;2072753;28;20204;-58
2021/01/21 01:03:39;;;;;;;1.63;1.00;;;5.00;85.90;;;;;;2072677;28;20177;-58
2021/01/21 01:04:40;;;;;;;1.73;0.90;;;5.00;88.10;;;;;;2072857;28;20185;-59
2021/01/21 01:05:41;;;;;;;2.00;1.00;;;5.10;84.00;;;;;;2072643;28;20196;-59
2021/01/21 01:06:41;;;;;;;2.30;1.10;;;5.00;88.00;;;;;;2072804;28;20200;-58
2021/01/21 01:07:42;;;;;;;1.97;1.00;;;5.10;83.80;;;;;;2072663;28;20188;-59
2021/01/21 01:08:43;;;;;;;1.90;1.00;;;5.00;87.90;;;;;;2072832;28;20189;-58
2021/01/21 01:09:43;;;;;;;1.73;0.90;;;5.00;89.00;;;;;;2072880;28;20181;-60
2021/01/21 01:10:44;;;;;;;1.57;0.90;;;4.90;90.10;;;;;;2072749;28;20710;-59
2021/01/21 01:11:45;;;;;;;2.90;0.90;;;5.00;90.10;;;;;;2072487;28;20169;-58
2021/01/21 01:12:45;;;;;;;1.50;0.97;;;4.90;90.20;;;;;;2072764;28;20264;-57
2021/01/21 01:13:46;;;;;;;0.83;0.77;;;4.90;87.10;;;;;;2072870;28;20185;-59
2021/01/21 01:14:47;;;;;;;1.57;0.90;;;5.00;85.20;;;;;;2072614;28;20215;-58
2021/01/21 01:15:48;;;;;;;2.93;0.97;;;5.00;87.60;;;;;;2072936;28;20585;-60
2021/01/21 01:16:48;;;;;;;2.83;1.00;;;5.00;90.60;;;;;;2072771;28;20267;-59
2021/01/21 01:17:49;;;;;;;3.87;1.13;;;5.00;89.20;;;;;;2072767;28;20205;-59
2021/01/21 01:18:50;;;;;;;0.97;0.70;;;4.90;90.40;;;;;;2072762;28;20181;-58
2021/01/21 01:19:50;;;;;;;3.20;1.00;;;4.80;89.80;;;;;;2073024;28;20180;-59
2021/01/21 01:20:51;;;;;;;3.23;0.90;;;4.80;90.10;;;;;;2072381;28;20184;-58
2021/01/21 01:21:52;;;;;;;1.50;1.10;;;4.80;90.30;;;;;;2072823;28;20575;-60
2021/01/21 01:22:54;;;;;;;1.60;0.90;;;4.90;89.90;;;;;;2072517;28;20181;-56
2021/01/21 01:23:54;;;;;;;1.65;1.05;;;4.80;90.20;;;;;;2072640;28;20209;-59
2021/01/21 01:24:55;;;;;;;1.30;0.97;;;4.90;90.30;;;;;;2072621;28;20192;-60
2021/01/21 01:25:56;;;;;;;1.80;1.00;;;4.80;91.20;;;;;;2072755;28;20180;-57
2021/01/21 01:26:57;;;;;;;1.90;1.10;;;4.80;91.30;;;;;;2089075;22;20631;-71
2021/01/21 01:27:58;;;;;;;1.40;1.00;;;4.70;91.00;;;;;;2092892;28;20246;-70
2021/01/21 01:28:58;;;;;;;1.47;0.90;;;4.70;91.60;;;;;;2096619;28;20633;-70
2021/01/21 01:29:59;;;;;;;1.27;0.90;;;4.80;91.70;;;;;;2096768;28;20271;-70
2021/01/21 01:31:00;;;;;;;1.43;0.93;;;4.70;92.00;;;;;;2096949;28;20301;-70
2021/01/21 01:32:01;;;;;;;1.40;0.90;;;4.70;92.00;;;;;;2097504;28;20182;-70
2021/01/21 01:33:01;;;;;;;1.87;1.10;;;4.70;91.80;;;;;;2096920;28;20175;-70
2021/01/21 01:34:02;;;;;;;1.23;0.90;;;4.70;92.40;;;;;;2096974;28;20698;-70
2021/01/21 01:35:04;;;;;;;1.10;0.97;;;4.70;92.10;;;;;;2096687;28;20180;-69
2021/01/21 01:36:05;;;;;;;1.77;0.88;;;4.60;93.20;;;;;;2096657;28;20186;-69
2021/01/21 01:37:06;;;;;;;1.50;1.05;;;4.60;93.50;;;;;;2096603;28;20673;-69
2021/01/21 01:38:07;;;;;;;2.07;1.10;;;4.60;93.30;;;;;;2096526;28;20226;-69
2021/01/21 01:39:07;;;;;;;2.80;0.90;;;4.60;93.50;;;;;;2104770;28;20706;-70
2021/01/21 01:40:13;;;;;;;1.23;0.93;;;4.60;93.20;;;;;;2104894;28;20173;-69
2021/01/21 01:41:14;;;;;;;1.10;0.85;;;4.60;93.40;;;;;;2097020;28;20693;-69
2021/01/21 01:42:15;;;;;;;2.03;1.00;;;4.60;94.60;;;;;;2097142;28;20174;-70
2021/01/21 01:43:15;;;;;;;1.13;1.00;;;4.50;94.00;;;;;;2096782;28;20167;-70
2021/01/21 01:44:16;;;;;;;1.30;1.10;;;4.50;95.40;;;;;;2096557;28;20761;-70
2021/01/21 01:45:17;;;;;;;1.57;1.17;;;4.40;95.30;;;;;;2096764;28;20308;-71
2021/01/21 01:46:17;;;;;;;1.47;1.17;;;4.40;95.50;;;;;;2097276;28;20264;-70
2021/01/21 01:47:19;;;;;;;1.27;1.00;;;4.40;95.20;;;;;;2097197;28;20232;-69
2021/01/21 01:48:20;;;;;;;3.60;1.10;;;4.40;96.70;;;;;;2096527;28;20174;-70
2021/01/21 01:49:20;;;;;;;2.83;1.47;;;4.30;96.30;;;;;;2096644;28;20546;-70
2021/01/21 01:50:23;;;;;;;1.07;0.90;;;4.30;96.60;;;;;;2096543;28;20206;-72
2021/01/21 01:51:24;;;;;;;1.00;0.90;;;4.30;97.10;;;;;;2097081;28;20182;-70
2021/01/21 01:52:28;;;;;;;1.15;0.98;;;4.30;95.60;;;;;;2096503;28;20181;-70
2021/01/21 01:53:30;;;;;;;1.10;1.00;;;4.30;96.40;;;;;;2088226;28;20183;-70
2021/01/21 01:54:31;;;;;;;1.60;1.10;;;4.20;97.90;;;;;;2080364;28;20183;-70
2021/01/21 01:55:33;;;;;;;3.30;1.33;;;4.20;98.10;;;;;;2097356;28;20704;-70
2021/01/21 01:56:34;;;;;;;1.70;1.10;;;4.10;98.10;;;;;;2098653;28;20180;-70
2021/01/21 01:57:35;;;;;;;1.83;1.20;;;4.10;99.30;;;;;;2098683;28;20264;-71
2021/01/21 01:58:35;;;;;;;1.50;1.07;;;4.00;97.80;;;;;;2097952;28;20664;-70
2021/01/21 01:59:37;;;;;;;4.83;1.27;;;4.00;99.90;;;;;;2089675;28;20189;-71
2021/01/21 02:00:38;;;;;;;1.75;1.15;;;4.10;96.80;;;;;;2089869;28;20682;-70
2021/01/21 02:01:41;;;;;;;1.97;1.10;;;4.20;97.80;;;;;;2097872;28;20220;-71
2021/01/21 02:02:42;;;;;;;1.55;1.08;;;4.20;97.10;;;;;;2098032;28;20197;-71
2021/01/21 02:03:42;;;;;;;1.60;1.17;;;4.20;96.50;;;;;;2098048;28;20277;-71
2021/01/21 02:04:46;;;;;;;1.27;1.00;;;4.30;96.90;;;;;;2098016;28;20265;-71
2021/01/21 02:05:48;;;;;;;1.70;1.33;;;4.20;96.90;;;;;;2090131;28;20607;-71
2021/01/21 02:06:48;;;;;;;2.40;1.10;;;4.20;97.60;;;;;;2089907;28;20554;-71
2021/01/21 02:07:49;;;;;;;1.27;0.90;;;4.20;98.40;;;;;;2098014;28;20174;-71
2021/01/21 02:08:50;;;;;;;1.43;1.00;;;4.20;99.20;;;;;;2097861;28;20640;-71
2021/01/21 02:09:51;;;;;;;1.63;1.07;;;4.10;99.30;;;;;;2081646;28;20707;-71
2021/01/21 02:10:56;;;;;;;3.08;1.02;;;4.00;99.90;;;;;;2072834;28;20260;-71
2021/01/21 02:12:24;;;;;;;1.80;1.10;;;4.00;99.90;;;;;;2081536;28;20708;-71
2021/01/21 02:13:46;;;;;;;1.90;1.38;;;3.90;99.90;;;;;;2081724;28;20184;-70
2021/01/21 02:15:12;;;;;;;1.17;1.08;;;3.80;99.90;;;;;;2082182;28;20175;-71
2021/01/21 02:16:46;;;;;;;1.58;1.00;;;3.70;99.90;;;;;;2081899;28;20193;-71
2021/01/21 02:18:26;;;;;;;1.13;0.90;;;3.70;99.90;;;;;;2081238;28;20916;-71
2021/01/21 02:20:07;;;;;;;2.05;1.20;;;3.70;99.90;;;;;;2066270;28;20292;-71
2021/01/21 02:21:57;;;;;;;1.30;0.90;;;3.80;99.90;;;;;;2081313;28;20794;-71
2021/01/21 02:23:37;;;;;;;4.47;0.95;;;3.80;99.90;;;;;;2081836;28;20321;-70
2021/01/21 02:25:16;;;;;;;1.17;1.00;;;3.80;99.90;;;;;;2082080;28;20270;-71
2021/01/21 02:26:33;;;;;;;0.98;0.90;;;3.90;99.90;;;;;;2081340;28;20276;-70
2021/01/21 02:28:03;;;;;;;2.40;1.20;;;3.90;99.90;;;;;;2075160;28;20217;-71
2021/01/21 02:29:25;;;;;;;1.75;1.05;;;3.90;99.90;;;;;;2085289;28;20560;-71
2021/01/21 02:30:56;;;;;;;1.60;1.10;;;3.90;99.90;;;;;;2081518;28;20574;-73
2021/01/21 02:33:13;;;;;;;3.15;1.02;;;3.90;99.90;;;;;;2081468;28;20176;-70
2021/01/21 02:34:22;;;;;;;1.42;0.77;;;4.00;99.60;;;;;;2081402;28;20714;-71
2021/01/21 02:35:24;;;;;;;1.83;0.85;;;4.10;99.50;;;;;;2074291;28;20218;-71
2021/01/21 02:36:39;;;;;;;1.67;1.00;;;4.10;96.30;;;;;;2073280;28;20184;-71
2021/01/21 02:37:53;;;;;;;1.13;0.80;;;4.30;96.00;;;;;;2082909;28;20218;-71
2021/01/21 02:38:56;;;;;;;2.05;0.95;;;4.40;96.50;;;;;;2073100;28;20637;-71
2021/01/21 02:40:03;;;;;;;2.97;1.00;;;4.40;96.30;;;;;;2073461;28;20188;-71
2021/01/21 02:41:04;;;;;;;1.67;1.10;;;4.50;95.70;;;;;;2080998;28;20206;-70
2021/01/21 02:42:05;;;;;;;1.83;1.10;;;4.50;95.40;;;;;;2073058;28;20556;-71
2021/01/21 02:43:10;;;;;;;1.63;0.82;;;4.60;95.70;;;;;;2081141;28;20186;-71
2021/01/21 02:44:12;;;;;;;1.30;0.82;;;4.60;94.90;;;;;;2081235;28;20677;-71
2021/01/21 02:45:13;;;;;;;3.33;1.05;;;4.60;95.20;;;;;;2081349;28;20184;-71
2021/01/21 02:46:14;;;;;;;2.35;0.90;;;4.60;94.50;;;;;;2081177;28;20185;-71
2021/01/21 02:47:17;;;;;;;3.03;1.10;;;4.60;95.00;;;;;;2081174;28;20796;-74
2021/01/21 02:48:18;;;;;;;1.35;0.77;;;4.60;94.20;;;;;;2081010;28;20199;-71
2021/01/21 02:49:19;;;;;;;2.27;1.00;;;4.60;93.40;;;;;;2072962;28;20556;-71
2021/01/21 02:50:19;;;;;;;1.60;1.20;;;4.70;94.30;;;;;;2081113;28;20215;-71
2021/01/21 02:51:41;;;;;;;1.80;0.93;;;4.70;94.10;;;;;;2081040;28;20176;-71
2021/01/21 02:52:51;;;;;;;2.40;1.10;;;4.60;94.30;;;;;;2075720;28;20708;-71
2021/01/21 02:54:11;;;;;;;2.45;1.00;;;4.70;94.20;;;;;;2066045;28;20181;-71
2021/01/21 02:56:00;;;;;;;1.98;1.10;;;4.70;94.40;;;;;;2070229;28;20163;-71
2021/01/21 02:57:25;;;;;;;2.45;0.85;;;4.70;93.60;;;;;;2087672;28;20191;-71
2021/01/21 02:58:44;;;;;;;1.63;1.02;;;4.70;93.20;;;;;;2086291;28;20282;-71
2021/01/21 02:59:46;;;;;;;1.00;0.80;;;4.60;94.90;;;;;;2081093;28;20176;-71
2021/01/21 03:00:50;;;;;;;2.05;1.00;;;4.60;95.40;;;;;;2081124;28;20188;-69
2021/01/21 03:01:52;;;;;;;1.58;0.73;;;4.60;93.60;;;;;;2072831;28;20667;-70
2021/01/21 03:03:00;;;;;;;1.33;0.90;;;4.60;94.40;;;;;;2073185;28;20715;-70
2021/01/21 03:04:03;;;;;;;1.88;0.85;;;4.60;93.40;;;;;;2080401;28;20222;-70
2021/01/21 03:05:05;;;;;;;0.82;0.80;;;4.70;92.10;;;;;;2078718;28;20176;-70
2021/01/21 03:06:08;;;;;;;1.75;1.00;;;4.80;91.90;;;;;;2089184;28;20275;-70
2021/01/21 03:07:11;;;;;;;1.27;0.90;;;4.80;92.50;;;;;;2088103;28;20234;-70
2021/01/21 03:08:11;;;;;;;1.00;0.73;;;4.80;91.30;;;;;;2089207;28;20184;-71
2021/01/21 03:09:12;;;;;;;2.17;1.00;;;4.90;89.50;;;;;;2089416;28;20184;-70
2021/01/21 03:10:19;;;;;;;1.00;0.80;;;4.90;90.20;;;;;;2089781;28;20253;-70
2021/01/21 03:11:20;;;;;;;2.15;1.00;;;4.90;89.40;;;;;;2089031;28;20171;-70
2021/01/21 03:12:26;;;;;;;2.50;1.17;;;4.90;89.20;;;;;;2081161;28;20260;-70
2021/01/21 03:13:27;;;;;;;1.25;1.05;;;4.90;90.90;;;;;;2089234;28;20251;-70
2021/01/21 03:14:28;;;;;;;1.10;0.90;;;4.90;88.90;;;;;;2089269;28;20195;-70
2021/01/21 03:15:28;;;;;;;1.07;0.90;;;5.10;86.20;;;;;;2089201;28;20630;-70
2021/01/21 03:16:29;;;;;;;1.13;1.03;;;5.00;87.40;;;;;;2080850;28;20184;-70
2021/01/21 03:17:30;;;;;;;1.33;1.00;;;5.00;87.30;;;;;;2072860;28;20649;-70
2021/01/21 03:18:30;;;;;;;3.23;0.90;;;5.00;86.70;;;;;;2089195;28;20293;-70
2021/01/21 03:19:31;;;;;;;1.47;1.00;;;5.00;87.60;;;;;;2089042;28;20274;-70
2021/01/21 03:20:32;;;;;;;1.20;0.90;;;5.00;88.10;;;;;;2080747;28;20619;-71
2021/01/21 03:21:32;;;;;;;2.47;0.90;;;5.00;87.70;;;;;;2088961;28;20187;-69
2021/01/21 03:22:33;;;;;;;1.00;0.90;;;5.00;89.10;;;;;;2080778;28;20187;-70
2021/01/21 03:23:42;;;;;;;1.43;0.80;;;5.10;85.10;;;;;;2080963;28;20606;-70
2021/01/21 03:24:42;;;;;;;1.40;0.90;;;5.10;86.30;;;;;;2090012;28;20171;-70
2021/01/21 03:25:43;;;;;;;1.17;0.90;;;5.10;80.80;;;;;;2097540;28;20629;-70
2021/01/21 03:26:44;;;;;;;2.42;1.00;;;5.20;80.60;;;;;;2089228;28;20570;-71
2021/01/21 03:27:45;;;;;;;1.47;0.90;;;5.30;78.70;;;;;;2088943;28;20221;-71
2021/01/21 03:28:45;;;;;;;2.70;0.90;;;5.30;78.70;;;;;;2080916;28;20757;-71
2021/01/21 03:29:46;;;;;;;1.43;0.90;;;5.30;80.00;;;;;;2089200;28;20180;-71
2021/01/21 03:30:47;;;;;;;1.10;0.80;;;5.30;80.00;;;;;;2089773;28;20184;-71
2021/01/21 03:31:47;;;;;;;2.13;1.00;;;5.30;81.20;;;;;;2089411;28;20198;-71
2021/01/21 03:32:48;;;;;;;1.80;0.90;;;5.30;82.50;;;;;;2089809;28;20187;-71
2021/01/21 03:33:49;;;;;;;1.37;1.10;;;5.30;81.70;;;;;;2089809;28;20652;-71
2021/01/21 03:34:49;;;;;;;2.90;1.43;;;5.30;79.20;;;;;;2089801;28;20317;-71
2021/01/21 03:35:50;;;;;;;1.50;1.10;;;5.30;81.90;;;;;;2089039;28;20188;-71
2021/01/21 03:36:51;;;;;;;1.40;1.10;;;5.30;79.90;;;;;;2080679;28;20276;-71
2021/01/21 03:37:52;;;;;;;2.00;0.80;;;5.20;80.10;;;;;;2089073;28;20270;-71
2021/01/21 03:38:53;;;;;;;1.30;1.08;;;5.30;80.20;;;;;;2089211;28;20192;-70
2021/01/21 03:39:53;;;;;;;2.07;0.83;;;5.20;79.40;;;;;;2089019;28;20206;-71
2021/01/21 03:40:54;;;;;;;1.73;0.90;;;5.20;79.50;;;;;;2089570;28;20184;-72
2021/01/21 03:41:55;;;;;;;2.13;0.90;;;5.20;81.50;;;;;;2089124;28;20211;-75
2021/01/21 03:42:55;;;;;;;0.80;0.77;;;5.20;79.80;;;;;;2089135;28;20242;-71
2021/01/21 03:43:56;;;;;;;1.13;0.80;;;5.20;80.20;;;;;;2089188;28;20183;-71
2021/01/21 03:44:57;;;;;;;2.10;1.13;;;5.30;79.60;;;;;;2089833;28;20647;-71
2021/01/21 03:45:57;;;;;;;1.13;1.00;;;5.20;80.20;;;;;;2089043;28;20176;-71
2021/01/21 03:46:58;;;;;;;1.43;1.10;;;5.20;80.70;;;;;;2089092;28;20176;-71
2021/01/21 03:47:59;;;;;;;1.23;0.97;;;5.20;80.70;;;;;;2089506;28;20659;-71
2021/01/21 03:48:59;;;;;;;1.83;1.07;;;5.20;81.10;;;;;;2089724;28;20175;-71
2021/01/21 03:50:00;;;;;;;1.00;0.90;;;5.10;81.70;;;;;;2089522;28;20267;-70
2021/01/21 03:51:01;;;;;;;1.43;0.80;;;5.00;84.50;;;;;;2088844;28;20302;-71
2021/01/21 03:52:02;;;;;;;1.00;0.90;;;5.00;82.00;;;;;;2088860;28;20184;-71
2021/01/21 03:53:02;;;;;;;1.53;1.03;;;5.10;80.80;;;;;;2089258;28;20186;-71
2021/01/21 03:54:04;;;;;;;1.87;0.87;;;5.10;79.30;;;;;;2089368;28;20929;-71
2021/01/21 03:55:05;;;;;;;1.65;0.82;;;5.10;82.20;;;;;;2080769;28;20694;-71
2021/01/21 03:56:06;;;;;;;1.65;0.90;;;5.10;82.90;;;;;;2072643;28;20220;-71
2021/01/21 03:57:07;;;;;;;1.10;0.90;;;5.00;87.40;;;;;;2080659;28;20570;-71
2021/01/21 03:58:07;;;;;;;2.87;1.00;;;4.90;86.40;;;;;;2088906;28;20254;-71
2021/01/21 03:59:08;;;;;;;1.23;0.90;;;4.90;87.70;;;;;;2088813;28;20172;-71
2021/01/21 04:00:09;;;;;;;1.43;0.90;;;4.90;90.10;;;;;;2088958;28;20866;-71
2021/01/21 04:01:10;;;;;;;1.73;1.00;;;4.80;88.80;;;;;;2080520;28;20230;-70
2021/01/21 04:02:11;;;;;;;1.90;1.00;;;4.80;90.50;;;;;;2088982;28;20271;-71
2021/01/21 04:03:11;;;;;;;1.70;1.20;;;4.80;90.20;;;;;;2088832;28;20604;-70
2021/01/21 04:04:12;;;;;;;1.57;1.07;;;4.80;89.80;;;;;;2088775;28;20179;-71
2021/01/21 04:05:13;;;;;;;1.47;1.00;;;4.70;91.30;;;;;;2085267;28;20226;-71
2021/01/21 04:06:14;;;;;;;3.27;1.00;;;4.80;90.10;;;;;;2088794;28;20179;-72
2021/01/21 04:07:14;;;;;;;2.20;1.03;;;4.80;90.00;;;;;;2088712;28;20198;-71
2021/01/21 04:08:16;;;;;;;1.10;1.00;;;4.70;91.00;;;;;;2089034;28;20213;-70
2021/01/21 04:09:17;;;;;;;1.50;0.95;;;4.70;91.90;;;;;;2089149;28;20189;-70
2021/01/21 04:10:17;;;;;;;3.63;1.10;;;4.70;92.00;;;;;;2089431;28;20223;-71
2021/01/21 04:11:18;;;;;;;1.20;1.00;;;4.70;91.30;;;;;;2089154;28;20581;-71
2021/01/21 04:12:19;;;;;;;1.43;1.00;;;4.60;92.00;;;;;;2088935;28;20214;-70
2021/01/21 04:13:20;;;;;;;1.47;0.90;;;4.70;90.60;;;;;;2080783;28;20565;-71
2021/01/21 04:14:20;;;;;;;1.37;0.93;;;4.60;91.10;;;;;;2089077;28;20176;-71
2021/01/21 04:15:21;;;;;;;1.20;0.90;;;4.60;92.60;;;;;;2089314;28;20238;-70
2021/01/21 04:16:22;;;;;;;2.03;0.90;;;4.60;91.40;;;;;;2089375;28;20653;-71
2021/01/21 04:17:22;;;;;;;2.00;1.13;;;4.70;92.00;;;;;;2089299;28;20206;-71
2021/01/21 04:18:23;;;;;;;2.57;1.50;;;4.70;91.20;;;;;;2088613;28;20633;-71
2021/01/21 04:19:24;;;;;;;1.40;1.07;;;4.70;90.90;;;;;;2088741;28;20175;-71
2021/01/21 04:20:24;;;;;;;3.97;1.20;;;4.70;90.50;;;;;;2088600;28;20171;-70
2021/01/21 04:21:25;;;;;;;1.40;0.90;;;4.70;91.00;;;;;;2088437;28;20175;-70
2021/01/21 04:22:26;;;;;;;2.17;1.07;;;4.70;91.40;;;;;;2088726;28;20633;-70
2021/01/21 04:23:26;;;;;;;1.10;0.97;;;4.70;92.70;;;;;;2088683;28;20202;-71
2021/01/21 04:24:27;;;;;;;1.70;1.37;;;4.60;92.10;;;;;;2088777;28;20663;-70
2021/01/21 04:25:28;;;;;;;1.60;1.03;;;4.50;93.80;;;;;;2080281;28;20199;-71
2021/01/21 04:26:28;;;;;;;1.37;1.00;;;4.50;93.50;;;;;;2080558;28;20181;-70
2021/01/21 04:27:29;;;;;;;1.47;0.90;;;4.50;93.10;;;;;;2088479;28;20217;-71
2021/01/21 04:28:31;;;;;;;2.20;1.00;;;4.50;93.60;;;;;;2080462;28;20236;-70
2021/01/21 04:29:31;;;;;;;1.35;1.00;;;4.60;92.00;;;;;;2080510;28;20686;-71
2021/01/21 04:30:32;;;;;;;2.60;1.00;;;4.60;92.70;;;;;;2089441;28;20200;-71
2021/01/21 04:31:33;;;;;;;1.13;0.90;;;4.50;93.40;;;;;;2088948;28;20622;-71
2021/01/21 04:32:33;;;;;;;1.53;1.10;;;4.50;92.00;;;;;;2089439;28;20187;-71
2021/01/21 04:33:34;;;;;;;3.20;0.93;;;4.50;93.50;;;;;;2089545;28;20187;-71
2021/01/21 04:34:35;;;;;;;2.30;1.00;;;4.50;93.60;;;;;;2089353;28;20187;-70
2021/01/21 04:35:35;;;;;;;1.10;0.80;;;4.50;95.10;;;;;;2089321;28;20191;-71
2021/01/21 04:36:36;;;;;;;2.00;1.07;;;4.50;93.80;;;;;;2089193;28;20244;-71
2021/01/21 04:37:37;;;;;;;1.03;0.90;;;4.50;93.60;;;;;;2089318;28;20222;-71
2021/01/21 04:38:37;;;;;;;1.10;0.83;;;4.50;94.30;;;;;;2088522;28;20230;-71
2021/01/21 04:39:38;;;;;;;1.13;1.03;;;4.40;93.80;;;;;;2088731;28;20182;-71
2021/01/21 04:40:39;;;;;;;1.27;0.90;;;4.40;93.70;;;;;;2088689;28;20179;-71
2021/01/21 04:41:39;;;;;;;1.43;1.10;;;4.50;93.80;;;;;;2088883;28;20179;-71
2021/01/21 04:42:41;;;;;;;2.97;1.17;;;4.50;92.40;;;;;;2089197;28;20206;-71
2021/01/21 04:43:42;;;;;;;1.63;1.10;;;4.50;92.90;;;;;;2089282;28;20664;-73
2021/01/21 04:44:43;;;;;;;2.30;1.20;;;4.50;93.90;;;;;;2088590;28;20266;-71
2021/01/21 04:45:43;;;;;;;1.50;1.20;;;4.50;93.50;;;;;;2080357;28;20184;-71
2021/01/21 04:46:45;;;;;;;2.30;1.30;;;4.40;95.90;;;;;;2088488;28;20630;-71
2021/01/21 04:47:47;;;;;;;1.73;1.05;;;4.30;95.10;;;;;;2088490;28;20701;-71
2021/01/21 04:48:49;;;;;;;1.48;1.00;;;4.30;94.30;;;;;;2088550;28;20237;-71
2021/01/21 04:49:49;;;;;;;4.63;1.20;;;4.40;94.60;;;;;;2088534;28;20229;-71
2021/01/21 04:50:50;;;;;;;1.43;1.00;;;4.40;94.70;;;;;;2088335;28;20186;-71
2021/01/21 04:51:53;;;;;;;1.33;0.90;;;4.40;95.90;;;;;;2088573;28;20711;-71
2021/01/21 04:52:56;;;;;;;1.67;1.05;;;4.40;96.10;;;;;;2088340;28;20481;-71
2021/01/21 04:53:59;;;;;;;1.13;0.85;;;4.20;96.60;;;;;;2088680;28;20397;-71
2021/01/21 04:55:08;;;;;;;1.05;0.95;;;4.30;96.40;;;;;;2088571;28;20183;-70
2021/01/21 04:56:14;;;;;;;1.77;1.02;;;4.30;97.20;;;;;;2081470;28;20195;-71
2021/01/21 04:57:20;;;;;;;1.95;1.25;;;4.30;96.80;;;;;;2088473;28;20187;-71
2021/01/21 04:58:35;;;;;;;1.50;1.02;;;4.30;97.00;;;;;;2080981;28;20683;-71
2021/01/21 04:59:37;;;;;;;1.52;0.93;;;4.30;96.20;;;;;;2082266;28;20171;-71
2021/01/21 05:00:38;;;;;;;1.10;0.80;;;4.30;95.90;;;;;;2088549;28;20187;-70
2021/01/21 05:01:39;;;;;;;2.88;1.00;;;4.30;96.30;;;;;;2079883;28;20179;-71
2021/01/21 05:02:41;;;;;;;1.10;0.90;;;4.30;97.10;;;;;;2080366;28;20180;-71
2021/01/21 05:03:42;;;;;;;1.05;0.90;;;4.30;97.50;;;;;;2088218;28;20187;-71
2021/01/21 05:04:45;;;;;;;1.83;1.20;;;4.30;96.70;;;;;;2080318;28;20206;-71
2021/01/21 05:05:46;;;;;;;1.33;0.90;;;4.30;97.60;;;;;;2080465;28;20937;-71
2021/01/21 05:06:50;;;;;;;2.45;1.00;;;4.30;97.90;;;;;;2080364;28;20196;-71
2021/01/21 05:07:51;;;;;;;1.80;1.00;;;4.30;96.40;;;;;;2088356;28;20673;-71
2021/01/21 05:08:52;;;;;;;1.35;1.15;;;4.30;97.20;;;;;;2088427;28;20198;-71
2021/01/21 05:09:53;;;;;;;1.63;1.13;;;4.30;97.70;;;;;;2088363;28;20272;-71
2021/01/21 05:10:53;;;;;;;1.03;0.80;;;4.30;96.80;;;;;;2088323;28;20182;-71
2021/01/21 05:11:55;;;;;;;1.67;0.90;;;4.30;97.00;;;;;;2088468;28;20178;-70
2021/01/21 05:12:56;;;;;;;1.45;1.00;;;4.40;98.00;;;;;;2088438;28;20179;-71
2021/01/21 05:13:56;;;;;;;1.53;1.07;;;4.40;96.60;;;;;;2088403;28;20194;-71
2021/01/21 05:14:57;;;;;;;2.40;1.00;;;4.40;95.80;;;;;;2088465;28;20192;-71
2021/01/21 05:15:58;;;;;;;2.47;1.00;;;4.60;92.40;;;;;;2088465;28;20265;-71
2021/01/21 05:16:59;;;;;;;1.33;0.90;;;4.60;94.50;;;;;;2088947;28;20185;-71
2021/01/21 05:17:59;;;;;;;1.10;0.98;;;4.70;96.40;;;;;;2088886;28;20185;-71
2021/01/21 05:19:01;;;;;;;1.73;0.90;;;4.60;96.40;;;;;;2088308;28;20242;-71
2021/01/21 05:20:02;;;;;;;1.33;0.98;;;4.60;93.20;;;;;;2088194;28;20180;-71
2021/01/21 05:21:05;;;;;;;2.00;1.00;;;4.70;95.60;;;;;;2088199;28;20187;-71
2021/01/21 05:22:06;;;;;;;1.15;0.90;;;4.70;95.50;;;;;;2080409;28;20524;-71
2021/01/21 05:23:07;;;;;;;2.23;1.10;;;4.70;95.30;;;;;;2088466;28;20189;-71
2021/01/21 05:24:14;;;;;;;1.65;1.00;;;4.70;97.60;;;;;;2080032;28;20187;-71
2021/01/21 05:25:15;;;;;;;0.80;0.80;;;4.60;99.80;;;;;;2081046;28;20172;-71
2021/01/21 05:26:16;;;;;;;1.47;1.00;;;4.50;96.70;;;;;;2088303;28;20176;-71
2021/01/21 05:27:20;;;;;;;1.33;0.90;;;4.60;95.60;;;;;;2088349;28;20215;-71
2021/01/21 05:28:21;;;;;;;1.42;1.00;;;4.70;94.00;;;;;;2080598;28;20199;-71
2021/01/21 05:29:22;;;;;;;1.58;0.77;;;4.80;94.60;;;;;;2088445;28;20207;-70
2021/01/21 05:30:26;;;;;;;0.80;0.80;;;5.10;92.90;;;;;;2088679;28;20738;-71
2021/01/21 05:31:28;;;;;;;1.10;1.00;;;5.30;91.60;;;;;;2089832;28;20190;-71
2021/01/21 05:32:29;;;;;;;1.17;0.90;;;5.30;91.80;;;;;;2081619;28;20231;-71
2021/01/21 05:33:30;;;;;;;1.40;0.80;;;5.30;91.10;;;;;;2073619;28;20339;-71
2021/01/21 05:34:33;;;;;;;1.17;0.90;;;5.40;91.40;;;;;;2089929;28;20615;-71